createdAt,value
2018-12-19T00:00:08.025Z,1.73
2018-12-19T00:02:36.242Z,1.65
2018-12-19T00:05:04.651Z,1.73
2018-12-19T00:07:32.867Z,1.75
2018-12-19T00:10:01.209Z,1.71
2018-12-19T00:12:29.439Z,1.73
2018-12-19T00:14:57.670Z,1.64
2018-12-19T00:17:26.082Z,1.65
2018-12-19T00:19:54.450Z,1.71
2018-12-19T00:22:22.706Z,1.74
2018-12-19T00:24:50.926Z,1.59
2018-12-19T00:27:19.215Z,1.60
2018-12-19T00:29:47.422Z,1.64
2018-12-19T00:32:15.668Z,1.67
2018-12-19T00:34:43.907Z,1.66
2018-12-19T00:37:12.207Z,1.49
2018-12-19T00:39:40.419Z,1.68
2018-12-19T00:42:08.634Z,1.63
2018-12-19T00:44:36.959Z,1.51
2018-12-19T00:47:05.284Z,1.44
2018-12-19T00:49:33.569Z,1.44
2018-12-19T00:52:01.818Z,1.50
2018-12-19T00:54:30.107Z,1.63
2018-12-19T00:56:58.400Z,1.56
2018-12-19T00:59:26.649Z,1.52
2018-12-19T01:01:54.942Z,1.49
2018-12-19T01:04:23.195Z,1.52
2018-12-19T01:06:51.607Z,1.53
2018-12-19T01:09:19.887Z,1.47
2018-12-19T01:11:48.267Z,1.49
2018-12-19T01:14:16.625Z,1.44
2018-12-19T01:16:44.851Z,1.42
2018-12-19T01:19:13.083Z,1.43
2018-12-19T01:21:41.303Z,1.35
2018-12-19T01:24:09.863Z,1.42
2018-12-19T01:26:38.215Z,1.45
2018-12-19T01:29:06.438Z,1.54
2018-12-19T01:31:34.649Z,1.53
2018-12-19T01:34:02.871Z,1.50
2018-12-19T01:36:31.092Z,1.47
2018-12-19T01:38:59.351Z,1.48
2018-12-19T01:41:27.590Z,1.43
2018-12-19T01:43:55.859Z,1.42
2018-12-19T01:46:24.085Z,1.42
2018-12-19T01:48:52.402Z,1.35
2018-12-19T01:51:21.041Z,1.36
2018-12-19T01:53:49.396Z,1.36
2018-12-19T01:56:17.615Z,1.36
2018-12-19T01:58:45.848Z,1.36
2018-12-19T02:01:14.191Z,1.39
2018-12-19T02:03:42.454Z,1.36
2018-12-19T02:06:11.218Z,1.26
2018-12-19T02:08:39.505Z,1.24
2018-12-19T02:11:07.743Z,1.31
2018-12-19T02:13:36.064Z,1.34
2018-12-19T02:16:04.296Z,1.32
2018-12-19T02:18:32.514Z,1.33
2018-12-19T02:21:00.804Z,1.37
2018-12-19T02:23:29.091Z,1.31
2018-12-19T02:25:57.354Z,1.27
2018-12-19T02:28:25.617Z,1.20
2018-12-19T02:30:53.845Z,1.11
2018-12-19T02:33:22.151Z,1.19
2018-12-19T02:35:50.384Z,1.20
2018-12-19T02:38:18.731Z,1.18
2018-12-19T02:40:46.986Z,1.23
2018-12-19T02:43:15.315Z,1.27
2018-12-19T02:45:43.631Z,1.29
2018-12-19T02:48:11.948Z,1.35
2018-12-19T02:50:40.182Z,1.25
2018-12-19T02:53:08.416Z,1.23
2018-12-19T02:55:36.636Z,1.21
2018-12-19T02:58:05.048Z,1.18
2018-12-19T03:00:33.304Z,1.19
2018-12-19T03:03:01.545Z,1.13
2018-12-19T03:05:29.891Z,1.15
2018-12-19T03:07:58.107Z,1.16
2018-12-19T03:10:26.423Z,1.17
2018-12-19T03:12:54.728Z,1.09
2018-12-19T03:15:23.100Z,1.12
2018-12-19T03:17:51.472Z,1.11
2018-12-19T03:20:19.739Z,1.12
2018-12-19T03:22:48.014Z,1.10
2018-12-19T03:25:16.304Z,1.02
2018-12-19T03:27:44.550Z,1.02
2018-12-19T03:30:12.944Z,1.14
2018-12-19T03:32:41.258Z,1.17
2018-12-19T03:35:09.586Z,1.24
2018-12-19T03:37:37.816Z,1.27
2018-12-19T03:40:06.111Z,1.28
2018-12-19T03:42:34.428Z,1.22
2018-12-19T03:45:02.681Z,1.24
2018-12-19T03:47:30.979Z,1.30
2018-12-19T03:49:59.371Z,1.42
2018-12-19T03:52:27.930Z,1.42
2018-12-19T03:54:56.216Z,1.42
2018-12-19T03:57:24.775Z,1.38
2018-12-19T03:59:52.990Z,1.37
2018-12-19T04:02:21.220Z,1.42
2018-12-19T04:04:49.439Z,1.43
2018-12-19T04:07:17.705Z,1.44
2018-12-19T04:09:45.915Z,1.37
2018-12-19T04:12:14.142Z,1.47
2018-12-19T04:14:42.435Z,1.40
2018-12-19T04:17:10.701Z,1.38
2018-12-19T04:19:38.944Z,1.36
2018-12-19T04:22:07.187Z,1.26
2018-12-19T04:24:35.462Z,1.23
2018-12-19T04:27:03.702Z,1.26
2018-12-19T04:29:32.303Z,1.29
2018-12-19T04:32:00.654Z,1.25
2018-12-19T04:34:28.992Z,1.26
2018-12-19T04:36:57.343Z,1.17
2018-12-19T04:39:25.578Z,1.25
2018-12-19T04:41:53.867Z,1.20
2018-12-19T04:44:22.123Z,1.29
2018-12-19T04:46:50.450Z,1.27
2018-12-19T04:49:19.347Z,1.22
2018-12-19T04:51:47.605Z,1.29
2018-12-19T04:54:15.917Z,1.29
2018-12-19T04:56:44.148Z,1.32
2018-12-19T04:59:13.334Z,1.35
2018-12-19T05:01:41.551Z,1.38
2018-12-19T05:04:09.910Z,1.39
2018-12-19T05:06:39.204Z,1.40
2018-12-19T05:09:07.970Z,1.37
2018-12-19T05:11:36.287Z,1.29
2018-12-19T05:14:04.560Z,1.36
2018-12-19T05:16:32.827Z,1.43
2018-12-19T05:19:01.116Z,1.32
2018-12-19T05:21:29.596Z,1.29
2018-12-19T05:23:58.048Z,1.38
2018-12-19T05:26:26.291Z,1.45
2018-12-19T05:28:55.263Z,1.44
2018-12-19T05:31:23.482Z,1.39
2018-12-19T05:33:51.697Z,1.51
2018-12-19T05:36:20.042Z,1.53
2018-12-19T05:38:48.270Z,1.54
2018-12-19T05:41:16.498Z,1.63
2018-12-19T05:43:44.891Z,1.60
2018-12-19T05:46:13.098Z,1.66
2018-12-19T05:48:41.404Z,1.64
2018-12-19T05:51:09.623Z,1.72
2018-12-19T05:53:37.889Z,1.82
2018-12-19T05:56:06.355Z,1.82
2018-12-19T05:58:34.611Z,1.93
2018-12-19T06:01:02.850Z,1.97
2018-12-19T06:03:31.211Z,1.91
2018-12-19T06:05:59.495Z,1.85
2018-12-19T06:08:27.875Z,1.91
2018-12-19T06:10:56.080Z,1.98
2018-12-19T06:13:24.388Z,1.89
2018-12-19T06:15:52.767Z,1.91
2018-12-19T06:18:21.055Z,1.85
2018-12-19T06:20:49.489Z,1.85
2018-12-19T06:23:17.708Z,1.95
2018-12-19T06:25:45.923Z,1.90
2018-12-19T06:28:14.167Z,1.95
2018-12-19T06:30:42.392Z,1.94
2018-12-19T06:33:10.606Z,1.98
2018-12-19T06:35:38.851Z,1.92
2018-12-19T06:38:07.072Z,1.91
2018-12-19T06:40:35.307Z,1.90
2018-12-19T06:43:03.707Z,1.82
2018-12-19T06:45:32.019Z,1.81
2018-12-19T06:48:00.444Z,1.77
2018-12-19T06:50:28.659Z,1.76
2018-12-19T06:52:56.926Z,1.72
2018-12-19T06:55:25.157Z,1.70
2018-12-19T06:57:53.413Z,1.67
2018-12-19T07:00:21.657Z,1.77
2018-12-19T07:02:49.907Z,1.82
2018-12-19T07:05:18.163Z,1.83
2018-12-19T07:07:46.403Z,1.80
2018-12-19T07:10:14.682Z,1.84
2018-12-19T07:12:42.916Z,1.90
2018-12-19T07:15:11.309Z,2.00
2018-12-19T07:17:40.016Z,1.97
2018-12-19T07:20:08.343Z,1.93
2018-12-19T07:22:36.568Z,1.97
2018-12-19T07:25:07.702Z,2.05
2018-12-19T07:27:35.912Z,2.07
2018-12-19T07:30:06.404Z,2.14
2018-12-19T07:32:34.639Z,2.22
2018-12-19T07:35:02.881Z,2.28
2018-12-19T07:37:31.111Z,2.29
2018-12-19T07:39:59.360Z,2.31
2018-12-19T07:42:27.595Z,2.31
2018-12-19T07:44:55.945Z,2.44
2018-12-19T07:47:24.153Z,2.42
2018-12-19T07:49:52.400Z,2.43
2018-12-19T07:52:20.665Z,2.46
2018-12-19T07:54:48.871Z,2.48
2018-12-19T07:57:17.080Z,2.57
2018-12-19T07:59:45.374Z,2.64
2018-12-19T08:02:13.656Z,2.74
2018-12-19T08:04:42.139Z,2.75
2018-12-19T08:09:43.955Z,2.83
2018-12-19T08:12:12.294Z,2.83
2018-12-19T08:14:40.499Z,2.74
2018-12-19T08:17:08.853Z,2.78
2018-12-19T08:19:37.203Z,2.79
2018-12-19T08:22:05.429Z,2.91
2018-12-19T08:24:33.671Z,2.95
2018-12-19T08:27:01.907Z,2.94
2018-12-19T08:29:30.149Z,3.03
2018-12-19T08:31:58.578Z,3.02
2018-12-19T08:34:26.836Z,3.06
2018-12-19T08:36:55.075Z,3.06
2018-12-19T08:39:23.647Z,3.07
2018-12-19T08:41:52.231Z,3.17
2018-12-19T08:44:20.454Z,3.18
2018-12-19T08:46:48.889Z,3.25
2018-12-19T08:49:17.168Z,3.31
2018-12-19T08:51:45.395Z,3.35
2018-12-19T08:54:13.813Z,3.36
2018-12-19T08:56:42.036Z,3.42
2018-12-19T08:59:10.263Z,3.34
2018-12-19T09:01:38.525Z,3.36
2018-12-19T09:04:06.763Z,3.41
2018-12-19T09:06:34.980Z,3.51
2018-12-19T09:09:03.258Z,3.43
2018-12-19T09:11:31.589Z,3.45
2018-12-19T09:13:59.932Z,3.48
2018-12-19T09:16:28.403Z,3.52
2018-12-19T09:18:56.647Z,3.55
2018-12-19T09:21:24.908Z,3.52
2018-12-19T09:23:53.250Z,3.59
2018-12-19T09:26:21.472Z,3.62
2018-12-19T09:28:49.683Z,3.67
2018-12-19T09:31:17.951Z,3.74
2018-12-19T09:33:46.332Z,3.77
2018-12-19T09:36:14.606Z,3.79
2018-12-19T09:38:42.831Z,3.88
2018-12-19T09:41:12.490Z,3.85
2018-12-19T09:43:41.099Z,3.91
2018-12-19T09:46:09.446Z,3.98
2018-12-19T09:48:37.676Z,3.91
2018-12-19T09:51:06.082Z,3.98
2018-12-19T09:53:34.371Z,4.05
2018-12-19T09:56:02.617Z,4.13
2018-12-19T09:58:30.932Z,4.15
2018-12-19T10:00:59.157Z,4.25
2018-12-19T10:03:27.705Z,4.25
2018-12-19T10:05:56.087Z,4.15
2018-12-19T10:08:24.357Z,4.16
2018-12-19T10:10:52.588Z,4.27
2018-12-19T10:13:20.840Z,4.31
2018-12-19T10:15:49.080Z,4.30
2018-12-19T10:18:17.357Z,4.36
2018-12-19T10:20:45.572Z,4.43
2018-12-19T10:23:13.813Z,4.48
2018-12-19T10:25:42.035Z,4.54
2018-12-19T10:28:10.255Z,4.56
2018-12-19T10:30:52.975Z,4.60
2018-12-19T10:33:21.259Z,4.66
2018-12-19T10:35:49.454Z,4.63
2018-12-19T10:38:17.676Z,4.74
2018-12-19T10:40:45.897Z,4.65
2018-12-19T10:43:14.155Z,4.68
2018-12-19T10:45:43.279Z,4.60
2018-12-19T10:48:11.547Z,4.64
2018-12-19T10:50:39.771Z,4.65
2018-12-19T10:53:08.066Z,4.68
2018-12-19T10:55:36.291Z,4.68
2018-12-19T10:58:04.565Z,4.56
2018-12-19T11:00:38.311Z,4.61
2018-12-19T11:03:06.601Z,4.63
2018-12-19T11:05:34.920Z,4.65
2018-12-19T11:08:03.155Z,4.70
2018-12-19T11:10:31.372Z,4.74
2018-12-19T11:12:59.603Z,4.84
2018-12-19T11:15:27.971Z,4.87
2018-12-19T11:17:56.200Z,4.91
2018-12-19T11:20:24.404Z,4.82
2018-12-19T11:22:52.699Z,4.88
2018-12-19T11:25:21.401Z,4.99
2018-12-19T11:27:49.629Z,4.86
2018-12-19T11:30:17.867Z,4.85
2018-12-19T11:32:46.239Z,4.88
2018-12-19T11:35:14.508Z,4.92
2018-12-19T11:37:42.755Z,4.92
2018-12-19T11:40:11.004Z,4.87
2018-12-19T11:42:39.255Z,4.89
2018-12-19T11:45:07.527Z,4.93
2018-12-19T11:50:10.241Z,4.95
2018-12-19T11:52:38.485Z,4.96
2018-12-19T11:55:06.760Z,5.01
2018-12-19T11:57:35.144Z,4.96
2018-12-19T12:00:04.087Z,5.00
2018-12-19T12:02:32.309Z,5.08
2018-12-19T12:05:00.519Z,5.13
2018-12-19T12:07:29.051Z,5.14
2018-12-19T12:09:57.280Z,5.18
2018-12-19T12:12:25.682Z,5.17
2018-12-19T12:14:54.083Z,5.23
2018-12-19T12:17:22.300Z,5.26
2018-12-19T12:19:50.650Z,5.30
2018-12-19T12:22:18.903Z,5.47
2018-12-19T12:24:47.244Z,5.54
2018-12-19T12:27:15.462Z,5.53
2018-12-19T12:29:43.840Z,5.55
2018-12-19T12:32:12.057Z,5.68
2018-12-19T12:34:40.448Z,5.74
2018-12-19T12:37:08.714Z,5.71
2018-12-19T12:39:36.928Z,5.63
2018-12-19T12:42:05.183Z,5.55
2018-12-19T12:44:33.411Z,5.53
2018-12-19T12:47:01.773Z,5.58
2018-12-19T12:49:30.079Z,5.54
2018-12-19T12:51:58.336Z,5.49
2018-12-19T12:54:26.603Z,5.51
2018-12-19T12:56:54.919Z,5.55
2018-12-19T12:59:23.136Z,5.68
2018-12-19T13:01:51.357Z,5.71
2018-12-19T13:04:19.599Z,5.72
2018-12-19T13:06:47.839Z,5.72
2018-12-19T13:09:16.060Z,5.74
2018-12-19T13:11:44.299Z,5.74
2018-12-19T13:14:12.885Z,5.78
2018-12-19T13:16:41.204Z,5.73
2018-12-19T13:19:09.444Z,5.73
2018-12-19T13:21:37.693Z,5.72
2018-12-19T13:24:05.933Z,5.73
2018-12-19T13:26:34.210Z,5.75
2018-12-19T13:29:02.443Z,5.76
2018-12-19T13:31:30.783Z,5.71
2018-12-19T13:33:58.999Z,5.67
2018-12-19T13:36:27.210Z,5.66
2018-12-19T13:38:55.433Z,5.68
2018-12-19T13:41:23.731Z,5.68
2018-12-19T13:43:51.944Z,5.61
2018-12-19T13:46:20.158Z,5.57
2018-12-19T13:48:48.383Z,5.58
2018-12-19T13:51:16.624Z,5.55
2018-12-19T13:53:44.831Z,5.55
2018-12-19T13:56:13.056Z,5.58
2018-12-19T13:58:41.595Z,5.59
2018-12-19T14:01:09.857Z,5.54
2018-12-19T14:03:38.095Z,5.58
2018-12-19T14:06:06.422Z,5.68
2018-12-19T14:08:34.658Z,5.50
2018-12-19T14:11:02.975Z,5.48
2018-12-19T14:13:31.233Z,5.46
2018-12-19T14:15:59.554Z,5.44
2018-12-19T14:18:27.799Z,5.43
2018-12-19T14:20:56.011Z,5.35
2018-12-19T14:23:24.362Z,5.36
2018-12-19T14:25:52.572Z,5.34
2018-12-19T14:28:20.811Z,5.33
2018-12-19T14:30:49.171Z,5.32
2018-12-19T14:33:17.442Z,5.36
2018-12-19T14:35:45.681Z,5.33
2018-12-19T14:38:13.955Z,5.35
2018-12-19T14:40:42.223Z,5.39
2018-12-19T14:43:10.544Z,5.31
2018-12-19T14:45:38.760Z,5.35
2018-12-19T14:48:07.002Z,5.39
2018-12-19T14:50:35.239Z,5.36
2018-12-19T14:53:03.548Z,5.35
2018-12-19T14:55:31.934Z,5.36
2018-12-19T14:58:00.153Z,5.51
2018-12-19T15:00:28.397Z,5.50
2018-12-19T15:02:56.731Z,5.46
2018-12-19T15:05:24.955Z,5.45
2018-12-19T15:07:53.217Z,5.55
2018-12-19T15:10:21.676Z,5.51
2018-12-19T15:12:49.924Z,5.47
2018-12-19T15:15:18.131Z,5.46
2018-12-19T15:17:46.380Z,5.49
2018-12-19T15:20:14.665Z,5.56
2018-12-19T15:22:42.941Z,5.58
2018-12-19T15:25:11.182Z,5.50
2018-12-19T15:27:39.420Z,5.50
2018-12-19T15:30:08.118Z,5.54
2018-12-19T15:32:37.545Z,5.56
2018-12-19T15:35:05.922Z,5.47
2018-12-19T15:37:34.156Z,5.46
2018-12-19T15:40:02.442Z,5.40
2018-12-19T15:42:32.691Z,5.47
2018-12-19T15:45:00.874Z,5.49
2018-12-19T15:47:29.092Z,5.47
2018-12-19T15:49:57.300Z,5.53
2018-12-19T15:52:25.521Z,5.51
2018-12-19T15:54:53.735Z,5.47
2018-12-19T15:57:22.476Z,5.44
2018-12-19T15:59:50.692Z,5.38
2018-12-19T16:02:19.027Z,5.39
2018-12-19T16:04:47.259Z,5.49
2018-12-19T16:07:15.508Z,5.56
2018-12-19T16:09:43.856Z,5.46
2018-12-19T16:12:12.171Z,5.44
2018-12-19T16:14:40.577Z,5.40
2018-12-19T16:17:08.776Z,5.33
2018-12-19T16:19:37.042Z,5.33
2018-12-19T16:22:05.323Z,5.35
2018-12-19T16:24:33.655Z,5.42
2018-12-19T16:27:01.903Z,5.36
2018-12-19T16:29:30.179Z,5.34
2018-12-19T16:31:58.888Z,5.38
2018-12-19T16:34:27.167Z,5.29
2018-12-19T16:36:55.390Z,5.18
2018-12-19T16:39:23.666Z,5.11
2018-12-19T16:41:51.908Z,5.07
2018-12-19T16:44:20.295Z,5.01
2018-12-19T16:46:48.492Z,5.13
2018-12-19T16:49:16.823Z,4.99
2018-12-19T16:51:45.111Z,4.96
2018-12-19T16:54:13.362Z,4.96
2018-12-19T16:56:41.683Z,4.92
2018-12-19T16:59:09.931Z,5.02
2018-12-19T17:01:38.310Z,4.90
2018-12-19T17:04:06.591Z,4.90
2018-12-19T17:06:34.803Z,4.84
2018-12-19T17:09:03.139Z,4.83
2018-12-19T17:11:31.351Z,4.80
2018-12-19T17:13:59.588Z,4.91
2018-12-19T17:16:27.841Z,4.95
2018-12-19T17:18:56.217Z,5.02
2018-12-19T17:21:24.440Z,5.10
2018-12-19T17:23:52.691Z,5.09
2018-12-19T17:26:21.024Z,5.10
2018-12-19T17:28:49.370Z,5.07
2018-12-19T17:31:17.671Z,5.11
2018-12-19T17:33:46.119Z,5.15
2018-12-19T17:36:14.329Z,5.13
2018-12-19T17:38:42.592Z,5.10
2018-12-19T17:41:10.847Z,5.12
2018-12-19T17:43:39.641Z,5.21
2018-12-19T17:46:07.887Z,5.19
2018-12-19T17:48:36.182Z,5.15
2018-12-19T17:51:04.429Z,5.14
2018-12-19T17:53:32.719Z,5.11
2018-12-19T17:56:00.939Z,5.14
2018-12-19T17:58:29.961Z,5.14
2018-12-19T18:00:58.324Z,5.03
2018-12-19T18:03:26.598Z,5.09
2018-12-19T18:05:54.942Z,5.09
2018-12-19T18:08:23.218Z,5.12
2018-12-19T18:10:51.506Z,5.10
2018-12-19T18:13:19.717Z,5.05
2018-12-19T18:15:47.955Z,5.13
2018-12-19T18:18:16.165Z,5.01
2018-12-19T18:20:44.420Z,4.96
2018-12-19T18:23:12.632Z,4.96
2018-12-19T18:25:40.873Z,4.96
2018-12-19T18:28:09.223Z,4.97
2018-12-19T18:30:37.491Z,4.91
2018-12-19T18:33:05.722Z,4.96
2018-12-19T18:35:34.064Z,4.90
2018-12-19T18:38:02.312Z,4.90
2018-12-19T18:40:30.531Z,4.88
2018-12-19T18:42:58.880Z,4.75
2018-12-19T18:45:27.194Z,4.69
2018-12-19T18:47:55.553Z,4.65
2018-12-19T18:50:23.840Z,4.60
2018-12-19T18:52:52.043Z,4.65
2018-12-19T18:55:20.392Z,4.60
2018-12-19T18:57:48.652Z,4.65
2018-12-19T19:00:18.864Z,4.69
2018-12-19T19:02:47.152Z,4.59
2018-12-19T19:05:15.418Z,4.46
2018-12-19T19:07:43.709Z,4.48
2018-12-19T19:10:12.005Z,4.52
2018-12-19T19:12:40.252Z,4.63
2018-12-19T19:15:08.603Z,4.63
2018-12-19T19:17:37.931Z,4.48
2018-12-19T19:20:06.461Z,4.49
2018-12-19T19:22:34.973Z,4.54
2018-12-19T19:25:03.264Z,4.54
2018-12-19T19:27:31.626Z,4.54
2018-12-19T19:29:59.883Z,4.54
2018-12-19T19:32:28.223Z,4.59
2018-12-19T19:34:56.677Z,4.64
2018-12-19T19:37:25.052Z,4.63
2018-12-19T19:39:53.366Z,4.66
2018-12-19T19:42:21.699Z,4.71
2018-12-19T19:44:49.963Z,4.71
2018-12-19T19:47:18.247Z,4.65
2018-12-19T19:49:46.523Z,4.65
2018-12-19T19:52:14.731Z,4.67
2018-12-19T19:54:43.262Z,4.72
2018-12-19T19:57:11.567Z,4.81
2018-12-19T19:59:39.828Z,4.81
2018-12-19T20:02:08.120Z,4.89
2018-12-19T20:04:36.609Z,4.76
2018-12-19T20:07:04.876Z,4.80
2018-12-19T20:09:33.204Z,4.79
2018-12-19T20:12:02.042Z,4.83
2018-12-19T20:14:30.255Z,4.82
2018-12-19T20:17:01.891Z,4.86
2018-12-19T20:19:30.380Z,4.78
2018-12-19T20:21:58.729Z,4.76
2018-12-19T20:24:26.952Z,4.73
2018-12-19T20:26:55.178Z,4.71
2018-12-19T20:29:23.388Z,4.71
2018-12-19T20:31:51.666Z,4.88
2018-12-19T20:34:19.903Z,4.87
2018-12-19T20:36:48.163Z,4.94
2018-12-19T20:39:16.373Z,4.83
2018-12-19T20:41:44.588Z,4.80
2018-12-19T20:44:12.795Z,4.76
2018-12-19T20:46:41.095Z,4.83
2018-12-19T20:49:09.318Z,4.79
2018-12-19T20:51:37.601Z,4.81
2018-12-19T20:54:05.845Z,4.82
2018-12-19T20:56:34.093Z,4.86
2018-12-19T20:59:02.403Z,4.78
2018-12-19T21:01:30.816Z,4.83
2018-12-19T21:03:59.055Z,4.80
2018-12-19T21:06:29.331Z,4.79
2018-12-19T21:08:57.631Z,4.90
2018-12-19T21:11:25.949Z,4.85
2018-12-19T21:13:54.243Z,4.81
2018-12-19T21:16:24.427Z,4.67
2018-12-19T21:18:52.663Z,4.78
2018-12-19T21:21:20.910Z,4.78
2018-12-19T21:23:49.128Z,4.79
2018-12-19T21:26:17.387Z,4.77
2018-12-19T21:28:45.610Z,4.68
2018-12-19T21:31:13.896Z,4.63
2018-12-19T21:33:42.336Z,4.61
2018-12-19T21:36:10.638Z,4.64
2018-12-19T21:38:38.969Z,4.67
2018-12-19T21:41:07.246Z,4.64
2018-12-19T21:43:35.484Z,4.58
2018-12-19T21:46:03.913Z,4.71
2018-12-19T21:48:32.231Z,4.55
2018-12-19T21:51:00.634Z,4.50
2018-12-19T21:53:28.930Z,4.63
2018-12-19T21:55:57.236Z,4.58
2018-12-19T21:58:25.485Z,4.44
2018-12-19T22:00:53.726Z,4.70
2018-12-19T22:03:21.949Z,4.53
2018-12-19T22:05:50.249Z,4.65
2018-12-19T22:08:18.508Z,4.50
2018-12-19T22:10:46.809Z,4.50
2018-12-19T22:13:15.181Z,4.45
2018-12-19T22:15:44.146Z,4.45
2018-12-19T22:21:15.598Z,4.44
2018-12-19T22:23:43.835Z,4.46
2018-12-19T22:26:12.159Z,4.45
2018-12-19T22:28:40.585Z,4.48
2018-12-19T22:31:08.854Z,4.40
2018-12-19T22:33:37.200Z,4.38
2018-12-19T22:36:05.655Z,4.57
2018-12-19T22:38:34.077Z,4.48
2018-12-19T22:41:02.426Z,4.36
2018-12-19T22:43:30.667Z,4.26
2018-12-19T22:45:59.123Z,4.23
2018-12-19T22:48:27.539Z,4.22
2018-12-19T22:50:55.922Z,4.30
2018-12-19T22:53:24.350Z,4.27
2018-12-19T22:55:52.687Z,4.26
2018-12-19T22:58:21.015Z,4.30
2018-12-19T23:00:55.928Z,4.30
2018-12-19T23:06:19.452Z,4.41
2018-12-19T23:08:47.860Z,4.41
2018-12-19T23:11:16.342Z,4.36
2018-12-19T23:16:28.961Z,4.36
2018-12-19T23:18:57.243Z,4.39
2018-12-19T23:21:25.576Z,4.41
2018-12-19T23:23:53.915Z,4.32
2018-12-19T23:26:22.451Z,4.39
2018-12-19T23:31:37.011Z,4.42
2018-12-19T23:34:05.372Z,4.37
2018-12-19T23:36:33.663Z,4.31
2018-12-19T23:39:02.070Z,4.36
2018-12-19T23:41:31.030Z,4.37
2018-12-19T23:43:59.516Z,4.43
2018-12-19T23:46:27.960Z,4.47
2018-12-19T23:48:56.259Z,4.47
2018-12-19T23:51:24.615Z,4.46
2018-12-19T23:53:52.839Z,4.45
2018-12-19T23:56:21.126Z,4.45
2018-12-19T23:58:49.419Z,4.41
